aviador You're here:

CYQZ Decoded Metar

QUESNEL in BC, CANADA
Report Time2018-06-25 06:00:00
UTC Time2018-06-25 06:25:07
Flight Rules vfr VFR
WindVRB at 02 kt
Visibility9999 m
Phenomena:Light Rain
Clouds:Few 038 Hf
Scattered 045 Hf
Overcast 070 Hf
Expected CloudBase > 400 ft AGL from Temp-Dew spread
Ceiling7,000 ft
Temp12°C (ISA +1)
Dew Point11°C (94% RH)
AAT11.6°C
QNH1009 hPa
Density Alt2,172 ft
Elevation1,788 ft
Report Wrong Elevation
Raw Report
CYQZ 250600Z AUTO VRB02KT 9SM -RA FEW038 SCT045 OVC070 12/11 A2981
RMK SLP103 DENSITY ALT 1900FT=

Extra information for CYQZ:More info

Metar Taf Metar & Taf Last 4 Metars F.Rules Stats Wind Profile Meteogram Temp Stats Airport Information Weather charts Add Link Nearby VenuesMetar ALERT Operation Metar Decoded Social comments